aviador You're here:

OING Decoded Metar

GORGAN in IRAN
Report Time2017-09-25 16:00:00
UTC Time2017-09-25 16:56:04
Flight Rules vfr VFR
Wind300° at 14 kt
W.Decomp.*RWY 31: 13.6 kt HW 3.1 kt LCW
W.Rank300° ranks 10
Current wind is above 300° avg. (8.6)
Visibility9999 m
Phenomena:thunderstorm
Clouds:Scattered CB 030 Hf
Overcast 090 Hf
Expected CloudBase > 2,000 ft AGL from Temp-Dew spread
Ceiling9,000 ft
Temp25°C (ISA +11)
Dew Point20°C (74% RH)
AAT23.7°C
QNH1019 hPa
Density Alt1,893 ft
Elevation509 ft
Report Wrong Elevation
Raw Report
METAR OING 251600Z 30014KT 9999 TS SCT030CB OVC090 25/20 Q1019=

Extra information for OING:More info

Metar Taf Metar & Taf Last 4 Metars F.Rules Stats Wind Profile Meteogram Temp Stats Airport Information Weather charts Add Link Nearby VenuesMetar ALERT Operation Metar Decoded Social comments